Time;durP1;ratioP1;P1;durP2;ratioP2;P2;SDS_P1;SDS_P2;PMS_P1;PMS_P2;Temp;Humidity;BMP_temperature;BMP_pressure;BME280_temperature;BME280_humidity;BME280_pressure;Samples;Min_cycle;Max_cycle;Signal;HPM_P1;HPM_P2
2022/12/21 00:01:30;;;;;;;3.58;1.65;;;;;;;-3.74;75.60;96405.45;1799395;80;21053;-72
2022/12/21 00:04:00;;;;;;;4.97;2.47;;;;;;;-3.60;75.99;96400.58;1799293;80;21026;-72
2022/12/21 00:06:30;;;;;;;7.37;2.53;;;;;;;-3.40;75.89;96404.49;1799231;80;21563;-72
2022/12/21 00:09:00;;;;;;;5.70;2.60;;;;;;;-3.22;76.32;96398.94;1799241;80;21010;-72
2022/12/21 00:11:28;;;;;;;4.30;1.60;;;;;;;-3.19;74.51;96397.78;1798976;80;21544;-72
2022/12/21 00:13:58;;;;;;;27.77;12.57;;;;;;;-3.32;74.03;96388.99;1799163;80;20993;-72
2022/12/21 00:16:28;;;;;;;32.67;13.00;;;;;;;-3.41;74.26;96398.86;1799082;80;20982;-72
2022/12/21 00:18:57;;;;;;;6.37;2.90;;;;;;;-3.38;74.75;96392.55;1799199;80;21010;-72
2022/12/21 00:21:28;;;;;;;4.57;2.07;;;;;;;-3.42;74.47;96390.25;1798909;80;21081;-72
2022/12/21 00:23:59;;;;;;;8.10;4.10;;;;;;;-3.59;74.18;96393.71;1798487;80;21017;-72
2022/12/21 00:26:30;;;;;;;6.10;2.93;;;;;;;-3.71;74.24;96390.13;1798843;80;21341;-72
2022/12/21 00:28:58;;;;;;;4.40;2.43;;;;;;;-3.82;75.04;96380.58;1799177;80;21039;-72
2022/12/21 00:31:31;;;;;;;4.30;2.00;;;;;;;-3.72;75.61;96384.50;1799021;80;21493;-72
2022/12/21 00:33:59;;;;;;;3.10;1.73;;;;;;;-3.78;74.99;96388.05;1799392;80;20994;-72
2022/12/21 00:36:28;;;;;;;5.83;3.23;;;;;;;-3.72;76.00;96384.09;1799113;80;21575;-72
2022/12/21 00:38:56;;;;;;;8.80;3.17;;;;;;;-3.65;75.64;96390.44;1799097;80;20994;-72
2022/12/21 00:41:26;;;;;;;4.97;2.87;;;;;;;-3.51;75.90;96392.38;1799196;80;21049;-72
2022/12/21 00:43:54;;;;;;;2.40;1.57;;;;;;;-3.58;74.50;96390.31;1799107;80;21464;-72
2022/12/21 00:46:25;;;;;;;5.33;1.90;;;;;;;-3.71;74.58;96387.55;1799116;80;21053;-72
2022/12/21 00:48:54;;;;;;;7.67;3.67;;;;;;;-3.82;74.64;96386.16;1799259;80;21001;-70
2022/12/21 00:51:23;;;;;;;7.83;3.77;;;;;;;-3.78;75.62;96379.94;1799030;80;20978;-72
2022/12/21 00:53:50;;;;;;;3.57;2.00;;;;;;;-3.71;75.18;96383.67;1799166;80;20994;-72
2022/12/21 00:56:18;;;;;;;10.33;4.80;;;;;;;-3.76;74.89;96382.56;1798856;80;21017;-72
2022/12/21 00:58:45;;;;;;;47.73;19.37;;;;;;;-3.87;74.58;96390.20;1799175;78;20958;-72
2022/12/21 01:01:17;;;;;;;4.70;2.10;;;;;;;-4.01;74.67;96389.09;1799095;80;20994;-72
2022/12/21 01:03:44;;;;;;;3.53;1.73;;;;;;;-4.00;75.62;96391.28;1799095;80;21502;-72
2022/12/21 01:06:19;;;;;;;4.93;2.50;;;;;;;-3.86;76.33;96376.48;1799039;80;21010;-72
2022/12/21 01:08:46;;;;;;;3.17;1.70;;;;;;;-3.77;76.01;96375.24;1797696;80;21476;-72
2022/12/21 01:11:14;;;;;;;3.03;1.50;;;;;;;-3.71;75.91;96370.37;1798724;80;21026;-72
2022/12/21 01:13:44;;;;;;;4.47;2.23;;;;;;;-3.61;76.07;96372.11;1799178;80;20998;-72
2022/12/21 01:16:16;;;;;;;6.73;3.77;;;;;;;-3.61;75.27;96374.28;1799077;80;21060;-72
2022/12/21 01:18:43;;;;;;;7.20;4.00;;;;;;;-3.75;74.40;96369.77;1799073;80;21002;-72
2022/12/21 01:21:21;;;;;;;8.87;4.27;;;;;;;-3.93;74.54;96363.31;1799182;80;21507;-72
2022/12/21 01:23:48;;;;;;;21.70;9.80;;;;;;;-3.95;74.93;96366.62;1798089;80;21010;-72
2022/12/21 01:26:17;;;;;;;4.77;1.90;;;;;;;-4.05;75.11;96362.70;1756389;81;21587;-72
2022/12/21 01:28:45;;;;;;;2.37;1.63;;;;;;;-4.10;75.14;96356.84;1721972;83;21074;-72
2022/12/21 01:31:13;;;;;;;6.13;2.73;;;;;;;-3.98;76.07;96349.69;1729887;83;21006;-72
2022/12/21 01:33:42;;;;;;;3.17;1.90;;;;;;;-3.95;75.25;96337.85;1716274;84;21051;-72
2022/12/21 01:36:13;;;;;;;10.80;4.93;;;;;;;-3.97;75.47;96333.02;1729806;83;20986;-72
2022/12/21 01:38:43;;;;;;;8.57;3.73;;;;;;;-3.84;75.85;96331.04;1716409;84;21000;-72
2022/12/21 01:41:24;;;;;;;2.57;1.37;;;;;;;-3.85;74.97;96339.59;1729741;83;20998;-72
2022/12/21 01:43:59;;;;;;;2.43;1.40;;;;;;;-3.85;74.99;96333.16;1690740;84;21545;-72
2022/12/21 01:46:34;;;;;;;2.10;1.43;;;;;;;-3.88;74.71;96317.51;1701206;83;21053;-71
2022/12/21 01:49:24;;;;;;;2.13;1.10;;;;;;;-3.93;75.20;96317.31;1716330;83;21059;-72
2022/12/21 01:51:58;;;;;;;1.70;1.30;;;;;;;-3.92;75.53;96310.92;1729959;83;21025;-72
2022/12/21 01:54:33;;;;;;;8.23;4.00;;;;;;;-3.80;75.49;96315.80;1716429;84;21542;-72
2022/12/21 01:57:04;;;;;;;11.47;5.63;;;;;;;-3.72;75.42;96317.45;1729700;83;21499;-72
2022/12/21 01:59:36;;;;;;;19.23;9.57;;;;;;;-3.79;74.85;96316.67;1716393;83;21066;-72
2022/12/21 02:02:07;;;;;;;7.87;3.63;;;;;;;-3.83;75.09;96304.05;1730007;83;21041;-72
2022/12/21 02:04:34;;;;;;;3.57;1.83;;;;;;;-3.85;75.24;96306.08;1716492;83;21039;-72
2022/12/21 02:07:00;;;;;;;1.67;0.97;;;;;;;-3.75;75.72;96305.70;1729734;83;21018;-71
2022/12/21 02:09:34;;;;;;;3.37;1.80;;;;;;;-3.66;75.39;96307.82;1716391;84;20987;-72
2022/12/21 02:12:05;;;;;;;3.23;1.70;;;;;;;-3.64;75.37;96313.53;1729755;83;21006;-72
2022/12/21 02:14:35;;;;;;;2.73;1.57;;;;;;;-3.62;75.12;96302.01;1716471;84;21039;-72
2022/12/21 02:17:10;;;;;;;2.83;1.40;;;;;;;-3.62;75.41;96299.02;1729873;83;20978;-72
2022/12/21 02:20:24;;;;;;;3.07;1.00;;;;;;;-3.54;75.85;96294.22;1716468;84;21545;-72
2022/12/21 02:23:14;;;;;;;1.90;1.30;;;;;;;-3.51;75.29;96292.64;1729854;83;20993;-72
2022/12/21 02:26:32;;;;;;;5.57;2.77;;;;;;;-3.62;74.63;96286.53;1720968;82;21094;-72
2022/12/21 02:29:08;;;;;;;4.17;2.43;;;;;;;-3.72;75.51;96291.25;1756202;81;21015;-71
2022/12/21 02:31:55;;;;;;;8.33;4.10;;;;;;;-3.65;75.71;96285.08;1745240;82;21026;-72
2022/12/21 02:34:40;;;;;;;7.40;4.53;;;;;;;-3.64;75.57;96280.41;1710086;82;21075;-72
2022/12/21 02:37:21;;;;;;;6.00;3.20;;;;;;;-3.83;74.97;96278.27;1744806;82;21086;-72
2022/12/21 02:40:20;;;;;;;5.67;2.87;;;;;;;-3.94;75.42;96277.73;1707754;83;21091;-71
2022/12/21 02:46:17;;;;;;;1.93;1.20;;;;;;;-4.11;75.93;96282.48;1756152;81;20967;-72
2022/12/21 02:49:06;;;;;;;2.63;1.37;;;;;;;-3.98;75.86;96272.36;1745227;82;21008;-72
2022/12/21 02:52:01;;;;;;;2.13;1.20;;;;;;;-3.88;76.01;96265.95;1714244;82;21091;-72
2022/12/21 02:54:28;;;;;;;2.30;1.20;;;;;;;-3.97;75.20;96264.71;1749294;82;21037;-72
2022/12/21 02:56:56;;;;;;;2.90;1.27;;;;;;;-4.08;75.36;96255.59;1744971;82;21003;-72
2022/12/21 02:59:27;;;;;;;2.03;1.13;;;;;;;-4.08;75.46;96259.84;1756132;82;21054;-72
2022/12/21 03:02:26;;;;;;;2.07;1.10;;;;;;;-4.02;76.06;96249.84;1745524;82;20995;-72
2022/12/21 03:05:37;;;;;;;2.73;1.10;;;;;;;-4.07;75.12;96247.05;1755618;82;21015;-72
2022/12/21 03:08:17;;;;;;;2.30;1.20;;;;;;;-4.07;76.04;96247.05;1624881;88;21083;-72
2022/12/21 03:11:01;;;;;;;2.80;1.60;;;;;;;-4.11;75.56;96241.66;1717608;82;21062;-72
2022/12/21 03:13:49;;;;;;;2.00;1.02;;;;;;;-4.00;76.35;96238.80;1756095;82;21559;-72
2022/12/21 03:16:25;;;;;;;2.57;1.33;;;;;;;-3.85;75.81;96237.76;1690587;82;21512;-72
2022/12/21 03:19:13;;;;;;;2.03;1.40;;;;;;;-3.85;74.80;96232.19;1744780;82;21150;-72
2022/12/21 03:22:03;;;;;;;2.00;1.20;;;;;;;-3.98;74.04;96230.73;1756069;81;21074;-72
2022/12/21 03:24:41;;;;;;;1.80;1.00;;;;;;;-4.18;74.20;96227.21;1745139;82;21066;-71
2022/12/21 03:27:21;;;;;;;1.97;1.10;;;;;;;-4.24;74.76;96224.73;1745020;82;21031;-71
2022/12/21 03:30:05;;;;;;;2.07;1.10;;;;;;;-4.22;75.70;96220.13;1745357;81;21011;-71
2022/12/21 03:32:40;;;;;;;2.85;1.10;;;;;;;-4.24;74.78;96219.58;1745223;82;20987;-71
2022/12/21 03:35:12;;;;;;;1.43;1.00;;;;;;;-4.35;74.85;96220.36;1745339;81;21532;-71
2022/12/21 03:37:40;;;;;;;2.57;1.57;;;;;;;-4.41;75.54;96219.67;1742830;82;21019;-71
2022/12/21 03:40:20;;;;;;;3.17;1.20;;;;;;;-4.44;75.66;96218.62;1745043;82;21007;-71
2022/12/21 03:42:59;;;;;;;2.87;1.77;;;;;;;-4.39;75.82;96220.59;1756070;81;20982;-71
2022/12/21 03:45:43;;;;;;;5.27;2.17;;;;;;;-4.33;75.74;96218.75;1738939;82;21095;-71
2022/12/21 03:48:16;;;;;;;2.90;1.60;;;;;;;-4.27;75.75;96220.73;1756094;81;21018;-71
2022/12/21 03:50:48;;;;;;;1.33;1.00;;;;;;;-4.11;75.96;96224.91;1745183;82;21070;-71
2022/12/21 03:53:29;;;;;;;2.50;1.40;;;;;;;-4.01;75.83;96214.22;1745058;81;21003;-71
2022/12/21 03:56:00;;;;;;;11.97;6.33;;;;;;;-4.08;74.23;96207.92;1744549;82;21023;-71
2022/12/21 03:58:28;;;;;;;28.90;16.37;;;;;;;-4.38;74.17;96217.23;1755901;81;21042;-71
2022/12/21 04:01:00;;;;;;;17.73;9.37;;;;;;;-4.53;74.36;96213.91;1756037;82;20995;-71
2022/12/21 04:03:32;;;;;;;2.40;1.10;;;;;;;-4.61;75.20;96213.55;1744054;82;21050;-71
2022/12/21 04:06:18;;;;;;;1.53;1.07;;;;;;;-4.49;75.87;96208.50;1756031;81;20991;-71
2022/12/21 04:08:47;;;;;;;1.93;1.20;;;;;;;-4.39;75.76;96207.72;1745065;82;21027;-71
2022/12/21 04:12:36;;;;;;;1.53;1.00;;;;;;;-4.31;75.79;96213.65;1756021;81;21453;-71
2022/12/21 04:13:43;;;;;;;2.07;1.30;;;;;;;-4.31;75.20;96205.92;1740636;82;21497;-71
2022/12/21 04:16:10;;;;;;;3.30;1.30;;;;;;;-4.24;76.02;96206.70;1745162;81;21063;-71
2022/12/21 04:21:21;;;;;;;2.10;1.20;;;;;;;-4.30;75.09;96199.98;1745287;81;21019;-71
2022/12/21 04:29:18;;;;;;;5.20;2.97;;;;;;;-4.19;74.86;96202.23;1764060;81;21006;-71
2022/12/21 04:31:45;;;;;;;12.70;5.97;;;;;;;-4.16;74.95;96194.67;1763996;81;20982;-71
2022/12/21 04:34:12;;;;;;;2.53;1.07;;;;;;;-4.22;74.29;96194.37;1764101;81;20999;-72
2022/12/21 04:39:25;;;;;;;2.77;1.50;;;;;;;-4.21;74.73;96186.22;1764439;81;21034;-71
2022/12/21 04:41:51;;;;;;;34.77;16.23;;;;;;;-4.27;74.56;96191.10;1764230;81;21034;-71
2022/12/21 04:44:18;;;;;;;67.20;30.80;;;;;;;-4.39;74.56;96193.55;1764207;81;21049;-71
2022/12/21 04:46:45;;;;;;;6.77;2.60;;;;;;;-4.45;74.74;96194.56;1764249;81;21026;-71
2022/12/21 04:49:11;;;;;;;2.80;1.67;;;;;;;-4.37;75.56;96191.06;1734048;81;20995;-71
2022/12/21 04:51:38;;;;;;;1.90;1.30;;;;;;;-4.30;75.15;96194.41;1764142;81;21010;-71
2022/12/21 04:54:05;;;;;;;9.97;4.53;;;;;;;-4.23;75.26;96187.88;1764274;81;20983;-71
2022/12/21 04:56:31;;;;;;;15.57;8.10;;;;;;;-4.21;74.33;96196.53;1764040;81;21570;-71
2022/12/21 04:58:58;;;;;;;10.17;5.10;;;;;;;-4.33;74.01;96191.70;1764201;81;21516;-71
2022/12/21 05:01:25;;;;;;;7.70;4.10;;;;;;;-4.33;74.45;96186.55;1764178;81;21017;-72
2022/12/21 05:03:54;;;;;;;14.70;7.50;;;;;;;-4.29;74.72;96184.98;1764226;81;21002;-71
2022/12/21 05:06:20;;;;;;;19.97;9.50;;;;;;;-4.29;74.12;96178.55;1734306;81;21081;-71
2022/12/21 05:08:47;;;;;;;20.20;8.97;;;;;;;-4.32;74.53;96179.28;1764289;81;21049;-72
2022/12/21 05:11:18;;;;;;;19.23;9.97;;;;;;;-4.35;74.05;96181.31;1764081;81;21046;-71
2022/12/21 05:13:45;;;;;;;4.37;2.10;;;;;;;-4.49;74.01;96190.47;1763514;81;21508;-71
2022/12/21 05:16:16;;;;;;;4.10;2.23;;;;;;;-4.45;75.11;96192.39;1764345;81;21524;-71
2022/12/21 05:18:43;;;;;;;2.13;1.20;;;;;;;-4.35;75.46;96191.61;1764445;81;21010;-71
2022/12/21 05:21:10;;;;;;;8.33;6.20;;;;;;;-4.35;74.47;96181.72;1764143;81;21026;-71
2022/12/21 05:23:38;;;;;;;5.87;1.70;;;;;;;-4.46;74.00;96191.52;1764182;81;21026;-70
2022/12/21 05:26:06;;;;;;;9.63;5.40;;;;;;;-4.58;74.16;96191.80;1763908;81;21031;-69
2022/12/21 05:28:32;;;;;;;13.60;7.30;;;;;;;-4.63;74.66;96191.98;1745088;82;21525;-70
2022/12/21 05:30:59;;;;;;;21.33;9.37;;;;;;;-4.70;74.71;96195.47;1745349;81;20971;-70
2022/12/21 05:33:26;;;;;;;3.43;1.50;;;;;;;-4.74;75.30;96198.27;1756102;82;21062;-69
2022/12/21 05:35:52;;;;;;;3.97;1.93;;;;;;;-4.78;74.88;96196.38;1745275;82;21007;-69
2022/12/21 05:38:18;;;;;;;3.37;2.00;;;;;;;-4.74;75.40;96195.70;1745073;82;21067;-69
2022/12/21 05:40:49;;;;;;;4.13;1.97;;;;;;;-4.69;75.08;96196.81;1745212;82;20987;-69
2022/12/21 05:43:16;;;;;;;1.93;1.10;;;;;;;-4.73;75.46;96196.20;1745033;82;21031;-69
2022/12/21 05:45:43;;;;;;;3.93;2.13;;;;;;;-4.67;75.53;96195.61;1745149;82;21007;-69
2022/12/21 05:48:10;;;;;;;3.43;1.60;;;;;;;-4.60;75.69;96186.97;1744921;82;21147;-69
2022/12/21 05:50:40;;;;;;;4.23;2.70;;;;;;;-4.53;75.20;96190.73;1745309;81;21457;-69
2022/12/21 05:53:08;;;;;;;6.23;2.57;;;;;;;-4.54;74.81;96182.92;1755567;81;20994;-69
2022/12/21 05:55:35;;;;;;;6.40;2.60;;;;;;;-4.63;74.87;96184.66;1745205;82;21126;-69
2022/12/21 05:58:01;;;;;;;2.70;1.67;;;;;;;-4.63;74.84;96184.25;1745066;82;21050;-69
2022/12/21 06:00:28;;;;;;;6.83;3.47;;;;;;;-4.72;74.97;96185.08;1745247;82;20967;-69
2022/12/21 06:02:55;;;;;;;25.13;13.97;;;;;;;-4.79;75.10;96184.30;1756168;82;21062;-69
2022/12/21 06:05:22;;;;;;;2.03;1.13;;;;;;;-4.86;74.95;96175.41;1745243;82;21533;-69
2022/12/21 06:07:49;;;;;;;5.43;1.43;;;;;;;-4.72;75.99;96179.05;1744892;81;21066;-69
2022/12/21 06:10:15;;;;;;;2.00;1.30;;;;;;;-4.61;75.78;96179.16;1745393;81;20996;-69
2022/12/21 06:12:42;;;;;;;7.43;4.67;;;;;;;-4.48;75.96;96179.38;1745026;81;21031;-69
2022/12/21 06:15:09;;;;;;;4.77;2.67;;;;;;;-4.51;74.65;96176.25;1745379;81;20995;-69
2022/12/21 06:17:36;;;;;;;1.23;0.83;;;;;;;-4.49;75.32;96181.05;1756072;81;21022;-69
2022/12/21 06:20:05;;;;;;;2.23;1.00;;;;;;;-4.37;75.39;96184.21;1745274;82;21501;-69
2022/12/21 06:22:35;;;;;;;2.20;1.33;;;;;;;-4.27;75.60;96189.81;1745152;81;21015;-69
2022/12/21 06:25:04;;;;;;;37.10;19.27;;;;;;;-4.35;73.92;96187.75;1745328;81;20967;-69
2022/12/21 06:27:30;;;;;;;5.50;3.37;;;;;;;-4.55;73.63;96194.05;1754107;80;21086;-69
2022/12/21 06:29:57;;;;;;;30.40;14.73;;;;;;;-4.69;73.97;96186.51;1764396;81;21026;-69
2022/12/21 06:32:23;;;;;;;19.10;9.90;;;;;;;-4.75;74.46;96190.08;1764355;81;21022;-69
2022/12/21 06:34:50;;;;;;;29.40;15.37;;;;;;;-4.81;74.70;96191.08;1763886;81;21049;-69
2022/12/21 06:37:17;;;;;;;23.63;11.43;;;;;;;-4.81;75.56;96192.38;1764180;81;21078;-69
2022/12/21 06:39:44;;;;;;;1.40;0.90;;;;;;;-4.71;76.24;96191.11;1763873;81;21101;-69
2022/12/21 06:42:10;;;;;;;3.73;1.43;;;;;;;-4.59;76.07;96183.61;1763844;81;21018;-69
2022/12/21 06:44:37;;;;;;;1.47;0.97;;;;;;;-4.44;76.45;96187.71;1764062;81;21536;-69
2022/12/21 06:47:04;;;;;;;2.43;0.90;;;;;;;-4.31;76.12;96181.45;1764173;81;21026;-69
2022/12/21 06:49:31;;;;;;;5.70;1.67;;;;;;;-4.23;75.72;96175.86;1764081;81;20975;-69
2022/12/21 06:51:58;;;;;;;3.03;2.30;;;;;;;-4.20;75.16;96180.28;1764153;81;21067;-69
2022/12/21 06:54:24;;;;;;;38.03;18.00;;;;;;;-4.16;74.94;96181.79;1764101;81;21062;-69
2022/12/21 06:56:51;;;;;;;37.13;19.27;;;;;;;-4.28;75.63;96180.30;1764051;81;20975;-69
2022/12/21 06:59:18;;;;;;;122.07;52.23;;;;;;;-4.26;75.71;96178.69;1764139;81;21496;-69
2022/12/21 07:01:45;;;;;;;89.50;43.97;;;;;;;-4.35;75.03;96184.30;1763767;81;21105;-69
2022/12/21 07:04:11;;;;;;;80.60;36.67;;;;;;;-4.39;75.97;96181.96;1764057;81;21018;-69
2022/12/21 07:06:37;;;;;;;96.87;43.50;;;;;;;-4.25;76.36;96185.62;1764162;81;21011;-69
2022/12/21 07:09:04;;;;;;;6.20;2.40;;;;;;;-4.15;76.20;96190.39;1764161;81;20963;-69
2022/12/21 07:11:31;;;;;;;2.07;1.10;;;;;;;-4.07;76.19;96184.31;1763603;81;21030;-69
2022/12/21 07:13:58;;;;;;;2.80;1.57;;;;;;;-4.02;76.03;96186.28;1764025;81;21022;-69
2022/12/21 07:16:25;;;;;;;3.27;2.00;;;;;;;-3.94;75.89;96185.34;1764158;81;21010;-69
2022/12/21 07:18:53;;;;;;;2.73;1.40;;;;;;;-3.85;75.84;96178.05;1764191;81;20998;-69
2022/12/21 07:21:21;;;;;;;7.07;3.90;;;;;;;-3.84;74.89;96171.19;1764016;81;21006;-69
2022/12/21 07:23:49;;;;;;;26.07;14.40;;;;;;;-3.94;74.47;96168.59;1764120;81;21010;-69
2022/12/21 07:26:19;;;;;;;28.17;13.63;;;;;;;-4.01;75.53;96174.27;1763685;81;21022;-68
2022/12/21 07:28:47;;;;;;;48.50;24.07;;;;;;;-4.04;75.45;96176.30;1763334;81;21021;-69
2022/12/21 07:31:18;;;;;;;64.47;31.77;;;;;;;-3.92;76.79;96174.70;1762599;81;21539;-69
2022/12/21 07:33:45;;;;;;;70.60;31.07;;;;;;;-3.80;76.14;96179.14;1762356;81;21615;-70
2022/12/21 07:36:13;;;;;;;46.50;21.10;;;;;;;-3.70;76.08;96173.58;1763221;81;21049;-70
2022/12/21 07:38:40;;;;;;;15.07;6.33;;;;;;;-3.63;75.72;96168.69;1762643;81;21033;-70
2022/12/21 07:41:11;;;;;;;30.97;14.37;;;;;;;-3.66;75.54;96161.70;1763454;81;21129;-70
2022/12/21 07:43:38;;;;;;;6.80;2.80;;;;;;;-3.68;75.50;96159.86;1762295;81;21068;-71
2022/12/21 07:46:15;;;;;;;11.93;5.37;;;;;;;-3.70;75.57;96159.40;1763441;81;21564;-70
2022/12/21 07:48:42;;;;;;;6.47;2.53;;;;;;;-3.65;75.71;96164.77;1764509;80;21562;-68
2022/12/21 07:51:09;;;;;;;6.27;3.20;;;;;;;-3.64;76.12;96165.64;1787546;80;21014;-67
2022/12/21 07:53:36;;;;;;;12.77;5.57;;;;;;;-3.60;75.97;96162.41;1788304;80;21046;-69
2022/12/21 07:56:13;;;;;;;7.73;3.73;;;;;;;-3.56;76.08;96161.70;1787807;80;20946;-70
2022/12/21 07:58:40;;;;;;;7.30;3.50;;;;;;;-3.52;76.58;96160.63;1790281;80;20999;-70
2022/12/21 08:01:10;;;;;;;13.53;6.20;;;;;;;-3.44;76.54;96157.50;1788789;80;21698;-70
2022/12/21 08:03:39;;;;;;;11.73;5.87;;;;;;;-3.32;76.82;96150.30;1769693;81;21026;-70
2022/12/21 08:06:06;;;;;;;33.20;14.70;;;;;;;-3.22;76.79;96146.42;1792698;80;21046;-70
2022/12/21 08:08:35;;;;;;;30.80;15.00;;;;;;;-3.10;76.74;96156.86;1792766;80;20951;-70
2022/12/21 08:11:01;;;;;;;19.60;9.57;;;;;;;-2.89;76.93;96158.58;1792663;80;20994;-71
2022/12/21 08:13:29;;;;;;;35.03;15.90;;;;;;;-2.72;76.25;96154.09;1792188;80;21073;-70
2022/12/21 08:16:01;;;;;;;46.10;20.87;;;;;;;-2.70;75.72;96146.00;1792507;80;20994;-70
2022/12/21 08:18:28;;;;;;;35.37;18.03;;;;;;;-2.70;75.84;96146.00;1792564;80;21559;-70
2022/12/21 08:20:56;;;;;;;33.77;15.87;;;;;;;-2.62;75.89;96149.39;1789488;80;21073;-71
2022/12/21 08:23:23;;;;;;;26.43;12.80;;;;;;;-2.66;75.83;96147.91;1780084;80;21513;-71
2022/12/21 08:25:50;;;;;;;38.27;18.40;;;;;;;-2.68;76.03;96134.91;1780337;80;21524;-71
2022/12/21 08:28:17;;;;;;;44.00;21.83;;;;;;;-2.57;76.59;96138.34;1740536;80;21392;-71
2022/12/21 08:30:44;;;;;;;29.73;15.97;;;;;;;-2.45;76.69;96141.42;1745499;81;21038;-70
2022/12/21 08:33:12;;;;;;;31.17;15.83;;;;;;;-2.25;76.80;96137.91;1766290;81;21074;-71
2022/12/21 08:35:40;;;;;;;40.43;19.00;;;;;;;-2.13;75.97;96125.02;1763816;81;20987;-73
2022/12/21 08:38:07;;;;;;;33.93;16.10;;;;;;;-2.02;76.23;96131.46;1757395;81;21058;-70
2022/12/21 08:40:33;;;;;;;28.83;13.60;;;;;;;-1.94;75.71;96127.88;1755239;81;21615;-71
2022/12/21 08:43:00;;;;;;;28.70;13.00;;;;;;;-1.89;75.77;96123.75;1763430;81;21060;-71
2022/12/21 08:45:27;;;;;;;41.23;20.60;;;;;;;-1.79;75.79;96125.47;1759506;81;21054;-71
2022/12/21 08:47:53;;;;;;;29.77;15.50;;;;;;;-1.63;75.96;96124.32;1759468;81;21039;-71
2022/12/21 08:50:20;;;;;;;30.83;17.67;;;;;;;-1.53;74.85;96121.66;1755834;81;21050;-71
2022/12/21 08:52:48;;;;;;;41.27;20.17;;;;;;;-1.48;75.19;96117.95;1759393;81;21003;-71
2022/12/21 08:55:14;;;;;;;49.03;24.40;;;;;;;-1.40;74.98;96117.38;1766894;81;21015;-71
2022/12/21 08:57:41;;;;;;;50.03;24.73;;;;;;;-1.37;74.98;96112.30;1755939;81;21054;-71
2022/12/21 09:00:10;;;;;;;56.87;24.30;;;;;;;-1.36;75.00;96117.06;1762018;81;21057;-71
2022/12/21 09:02:37;;;;;;;49.00;24.43;;;;;;;-1.27;75.29;96109.63;1762769;81;21490;-68
2022/12/21 09:05:05;;;;;;;49.10;23.07;;;;;;;-1.15;75.21;96108.77;1762961;81;21485;-75
2022/12/21 09:07:32;;;;;;;46.87;23.00;;;;;;;-1.04;74.86;96110.42;1762787;81;20983;-74
2022/12/21 09:09:59;;;;;;;44.07;21.47;;;;;;;-0.94;74.91;96107.73;1732846;81;21102;-70
2022/12/21 09:12:27;;;;;;;38.37;19.03;;;;;;;-0.87;74.75;96101.94;1736779;82;21595;-70
2022/12/21 09:14:53;;;;;;;42.50;21.17;;;;;;;-0.79;74.78;96087.94;1767503;80;21007;-73
2022/12/21 09:17:20;;;;;;;40.83;21.50;;;;;;;-0.69;74.77;96084.39;1767484;81;21054;-74
2022/12/21 09:19:47;;;;;;;42.13;20.93;;;;;;;-0.51;75.38;96084.09;1737635;82;21061;-78
2022/12/21 09:22:14;;;;;;;41.93;22.37;;;;;;;-0.32;75.30;96076.92;1758779;80;21548;-75
2022/12/21 09:24:40;;;;;;;43.57;21.00;;;;;;;-0.27;74.27;96072.75;1745330;82;21008;-75
2022/12/21 09:27:07;;;;;;;40.53;21.60;;;;;;;-0.26;73.57;96080.56;1724532;82;21533;-74
2022/12/21 09:29:34;;;;;;;42.57;20.57;;;;;;;-0.19;73.94;96072.56;1754187;82;21016;-74
2022/12/21 09:32:01;;;;;;;41.03;20.50;;;;;;;-0.11;73.95;96068.48;1745891;82;21055;-75
2022/12/21 09:34:27;;;;;;;39.93;20.20;;;;;;;0.03;74.02;96066.31;1746100;82;21007;-75
2022/12/21 09:36:54;;;;;;;42.10;21.10;;;;;;;0.08;73.76;96060.84;1745782;81;21054;-74
2022/12/21 09:39:21;;;;;;;36.33;19.53;;;;;;;0.15;74.04;96056.29;1744320;82;21537;-74
2022/12/21 09:41:59;;;;;;;38.03;18.43;;;;;;;0.28;74.13;96051.42;1745259;81;21042;-74
2022/12/21 09:44:39;;;;;;;37.03;20.17;;;;;;;0.39;73.57;96043.11;1689384;82;21074;-74
2022/12/21 09:47:10;;;;;;;41.83;22.30;;;;;;;0.73;74.23;96040.53;1745421;82;21023;-74
2022/12/21 09:49:45;;;;;;;40.73;23.30;;;;;;;1.14;72.73;96028.62;1745486;82;21604;-75
2022/12/21 09:52:32;;;;;;;41.10;26.43;;;;;;;1.64;73.48;96029.36;1745962;82;21059;-75
2022/12/21 09:55:04;;;;;;;45.20;28.37;;;;;;;2.02;70.58;96022.82;1685592;82;21011;-75
2022/12/21 09:57:34;;;;;;;50.97;29.47;;;;;;;2.56;71.92;96010.01;1746199;82;21058;-75
2022/12/21 10:00:06;;;;;;;58.37;30.37;;;;;;;3.07;69.49;96000.91;1745714;82;21011;-76
2022/12/21 10:02:54;;;;;;;49.97;29.10;;;;;;;3.46;68.74;95996.34;1744522;82;21047;-76
2022/12/21 10:05:50;;;;;;;51.07;29.20;;;;;;;3.83;65.18;95990.77;1724742;83;20952;-76
2022/12/21 10:08:47;;;;;;;49.10;28.37;;;;;;;4.22;64.28;95980.41;1754638;82;21317;-74
2022/12/21 10:11:44;;;;;;;44.23;27.30;;;;;;;4.48;64.49;95978.95;1745912;82;21100;-74
2022/12/21 10:14:30;;;;;;;41.60;25.70;;;;;;;5.04;65.58;95975.19;1745076;82;21037;-77
2022/12/21 10:17:22;;;;;;;43.55;24.02;;;;;;;5.32;61.69;95974.98;1744935;82;21019;-75
2022/12/21 10:20:26;;;;;;;42.33;24.02;;;;;;;5.76;60.73;95974.84;1724728;82;21505;-74
2022/12/21 10:22:56;;;;;;;;;;;;;;;6.18;59.12;95965.50;1757088;81;21019;-74
2022/12/21 10:25:26;;;;;;;33.83;20.08;;;;;;;6.52;60.33;95958.62;1746124;82;20103;-75
2022/12/21 10:28:24;;;;;;;30.92;16.97;;;;;;;6.93;59.93;95957.41;1745804;82;21047;-75
2022/12/21 10:31:01;;;;;;;26.17;15.48;;;;;;;7.45;53.98;95944.72;1745811;82;21027;-76
2022/12/21 10:33:30;;;;;;;15.25;10.35;;;;;;;7.81;56.45;95946.84;1741448;82;21526;-76
2022/12/21 10:36:03;;;;;;;13.55;8.55;;;;;;;8.24;48.66;95931.84;1724538;82;21015;-76
2022/12/21 10:38:34;;;;;;;10.43;6.53;;;;;;;8.74;45.99;95932.48;1745688;82;21028;-77
2022/12/21 10:41:08;;;;;;;8.83;5.92;;;;;;;9.21;43.61;95932.60;1745927;82;21034;-75
2022/12/21 10:43:39;;;;;;;8.75;6.17;;;;;;;9.56;35.51;95924.84;1745937;82;21566;-76
2022/12/21 10:46:05;;;;;;;10.88;6.85;;;;;;;9.77;39.05;95923.75;1745937;82;21000;-76
2022/12/21 10:48:33;;;;;;;11.00;7.42;;;;;;;9.72;39.10;95928.20;1745579;82;21530;-76
2022/12/21 10:51:05;;;;;;;15.85;10.48;;;;;;;9.77;36.44;95918.48;1745947;82;20999;-76
2022/12/21 10:53:33;;;;;;;19.37;9.95;;;;;;;9.35;41.65;95923.29;1723600;83;21821;-76
2022/12/21 10:56:01;;;;;;;19.17;10.40;;;;;;;8.84;42.02;95924.99;1745613;82;21039;-76
2022/12/21 10:58:31;;;;;;;14.23;7.65;;;;;;;8.33;45.14;95921.72;1724581;83;21580;-76
2022/12/21 11:01:08;;;;;;;12.58;6.87;;;;;;;7.92;46.78;95920.12;1745952;82;21031;-77
2022/12/21 11:03:39;;;;;;;10.50;6.03;;;;;;;7.56;47.95;95921.10;1742763;82;21011;-77
2022/12/21 11:06:18;;;;;;;7.40;5.42;;;;;;;7.02;49.60;95920.24;1745829;82;21095;-77
2022/12/21 11:08:48;;;;;;;10.58;6.00;;;;;;;6.44;50.95;95918.41;1745982;82;21027;-77
2022/12/21 11:11:32;;;;;;;11.30;6.80;;;;;;;6.10;52.10;95923.55;1745975;82;21000;-76
2022/12/21 11:14:15;;;;;;;9.75;6.20;;;;;;;5.62;54.15;95920.66;1745901;82;21083;-76
2022/12/21 11:16:44;;;;;;;11.40;6.03;;;;;;;4.95;57.31;95925.41;1746304;82;20968;-74
2022/12/21 11:19:20;;;;;;;9.43;5.47;;;;;;;4.63;58.38;95922.06;1745890;82;21446;-75
2022/12/21 11:21:55;;;;;;;7.30;5.00;;;;;;;4.42;59.79;95919.25;1746084;82;21007;-75
2022/12/21 11:24:36;;;;;;;6.00;4.37;;;;;;;4.20;60.51;95923.36;1724498;83;21074;-74
2022/12/21 11:27:31;;;;;;;8.03;4.03;;;;;;;4.21;60.64;95918.16;1745975;82;21015;-74
2022/12/21 11:30:08;;;;;;;5.37;3.10;;;;;;;4.28;60.46;95917.38;1752951;82;21118;-76
2022/12/21 11:32:39;;;;;;;5.33;3.20;;;;;;;4.20;61.56;95915.52;1754173;82;21011;-75
2022/12/21 11:35:09;;;;;;;5.40;3.07;;;;;;;4.08;61.99;95905.80;1731942;82;20995;-74
2022/12/21 11:37:44;;;;;;;4.13;2.67;;;;;;;4.09;61.55;95904.53;1752382;82;21516;-74
2022/12/21 11:40:20;;;;;;;4.27;3.17;;;;;;;4.15;61.91;95906.32;1754532;82;21490;-74
2022/12/21 11:43:04;;;;;;;10.30;5.60;;;;;;;4.14;63.12;95910.25;1754392;82;20979;-74
2022/12/21 11:45:59;;;;;;;12.13;8.43;;;;;;;4.41;62.00;95910.55;1753929;82;21011;-74
2022/12/21 11:48:43;;;;;;;13.83;8.00;;;;;;;4.78;61.06;95904.34;1754438;81;21477;-77
2022/12/21 11:51:34;;;;;;;12.00;6.80;;;;;;;4.99;59.39;95901.91;1754341;82;21027;-75
2022/12/21 11:54:30;;;;;;;10.13;6.67;;;;;;;5.33;56.59;95897.36;1754266;82;21027;-76
2022/12/21 11:57:34;;;;;;;13.40;8.07;;;;;;;5.84;55.72;95886.72;1754106;81;21046;-75
2022/12/21 12:00:14;;;;;;;14.15;8.55;;;;;;;6.24;56.17;95887.77;1754483;81;20994;-75
2022/12/21 12:03:04;;;;;;;9.63;6.30;;;;;;;6.59;49.72;95877.80;1721792;82;21031;-74
2022/12/21 12:06:00;;;;;;;15.53;7.45;;;;;;;7.01;49.38;95875.22;1732635;83;21023;-74
2022/12/21 12:08:55;;;;;;;22.30;10.58;;;;;;;7.44;47.51;95876.48;1754048;82;21027;-75